AirNav   Bose Proflight and A20 aviation headeets
 
 922 users online  

PN23 University of Pittsburgh Medical Center Mercy Heliport
Pittsburgh, Pennsylvania, USA

GOING TO PITTSBURGH?


FAA INFORMATION EFFECTIVE 31 JANUARY 2019

Location

FAA Identifier: PN23
Lat/Long: 40-26-08.7100N / 079-59-04.9400W
40-26.145167N / 079-59.082333W
40.4357528 / -79.9847056
(estimated)
Elevation: 886 ft. / 270 m (estimated)
Variation: 08W (1990)
Time zone: UTC -5 (UTC -4 during Daylight Saving Time)
Zip code: 15219

Heliport Operations

Heliport use: Private use. Permission required prior to landing
Activation date: 03/1994
Control tower: no
ARTCC: CLEVELAND CENTER
FSS: ALTOONA FLIGHT SERVICE STATION
Attendance: CONTINUOUS
Wind indicator: lighted
Segmented circle: no

Heliport Communications

WX AWOS-A at 42PN (1.5 nm NW): PHONE 412-442-2213
WX ASOS at AGC (6 nm SE): PHONE 412-466-8968
WX ASOS at PIT (12 nm W): PHONE 412-472-0145
WX AWOS-3 at FWQ (15 nm SE): 118.475 (724-379-5815)

Nearby radio navigation aids

VOR radial/distance  VOR name  Freq  Var
AGCr024/9.8ALLEGHENY VOR/DME110.0009W
EWCr164/25.5ELLWOOD CITY VOR/DME115.8008W
HLGr075/28.7WHEELING VOR/DME112.2007W
IHDr320/39.9INDIAN HEAD VORTAC108.2006W

Heliport Services

Runway Information

Helipad H1

Dimensions: 65 x 65 ft. / 20 x 20 m
Surface: concrete
Latitude: 40-26.145167N
Longitude: 079-59.082333W
Elevation: 886.0 ft.
Traffic pattern: leftleft

Heliport Ownership and Management from official FAA records

Ownership: Privately-owned
Owner: UPMC MERCY
1400 LOCUST STREET, STE 1215
PITTSBURGH, PA 15219
Phone 412-232-8111
Manager: ANN CURTIS
1400 LOCUST STREET, STE 1051
PITTSBURGH, PA 15219
Phone (412) 232-8370

Additional Remarks

A52-H1 HAS 127 FT BLDG 44 FT N & 13 FT BLDG 148 FT E.

Instrument Procedures

There are no published instrument procedures at PN23.

Some nearby airports with instrument procedures:

KAGC - Allegheny County Airport (6 nm SE)
G05 - Finleyville Airpark (11 nm S)
KPIT - Pittsburgh International Airport (12 nm W)
KFWQ - Rostraver Airport (15 nm SE)
KBTP - Pittsburgh/Butler Regional Airport (21 nm N)
 
Loc | Ops | Rwys | IFR | FBO | Links
Com | Nav | Svcs | Stats | Notes
Area around PN23 (University of Pittsburgh Medical Center Mercy Heliport)
 
Road maps at: MapQuest Bing Google
 
Aerial photo
No photo
 
Sectional chart

 
Airport distance calculator
Flying to University of Pittsburgh Medical Center Mercy Heliport? Find the distance to fly.

From to PN23

Sunrise and sunset
Times for 23-Feb-2019
 Local
(UTC-5)
 Zulu
(UTC)
Morning civil twilight06:3611:36
Sunrise07:0412:04
Sunset18:0323:03
Evening civil twilight18:3123:31

Current date and time
Zulu (UTC)  24-Feb-2019 00:09:07
Local (UTC-5)  23-Feb-2019 19:09:07
 
METAR
KAGC 
6nm SE 
232353Z 12007KT 10SM FEW047 OVC075 05/03 A2998 RMK AO2 SLP166 60008 T00500033 10050 20033 58016
KPIT 
13nm W 
232351Z 11005KT 8SM BKN038 OVC048 04/04 A2999 RMK AO2 DZB01E09 SLP172 P0000 60003 T00440039 10050 20039 58014
KP53 
15nm SE 
232356Z AUTO VRB06KT M01/M03 A2983 RMK AO1 SLP110 60008 T10061033 10000 21017 56034
KBTP 
20nm N 
232356Z AUTO 11007KT 9SM UP FEW007 OVC031 03/02 A3001 RMK AO2 UPB33 SLP178 P0000 60000 T00280022 10033 20028 55010
TAF
KAGC 
6nm SE 
231924Z 2319/2418 12010G18KT 4SM BR VCSH OVC025 TEMPO 2319/2321 2SM -RA BR OVC007 FM240400 13008KT 6SM -RA OVC025 FM240900 16010KT 6SM -RA OVC015 WS020/18040KT FM241100 19010G16KT 6SM -SHRA OVC012 WS020/20040KT FM241300 20015G25KT P6SM VCSH OVC025 WS020/21040KT FM241600 23028G48KT P6SM BKN050 WS020/21045KT
KPIT 
13nm W 
232104Z 2321/2424 12010KT 3SM BR VCSH OVC007 FM232300 13008KT 5SM BR OVC025 FM240300 13008KT 4SM -SHRA OVC025 FM240500 16010KT 4SM -RA BR OVC015 FM240900 16010G17KT 4SM -DZ BR OVC007 FM241100 16014G23KT P6SM VCSH OVC015 FM241500 22024G36KT P6SM VCSH BKN050 FM241800 25027G37KT P6SM VCSH OVC025
NOTAMs
Click for the latest NOTAMs
NOTAMs are issued by the DoD/FAA and will open in a separate window not controlled by AirNav.

 

 
 

Would you like to see your business listed on this page?

 If your business provides an interesting product or service to pilots, flight crews, aircraft, or users of the University of Pittsburgh Medical Center Mercy Heliport, you should consider listing it here.  To start the listing process, click on the button below
 
Add a business
 

Other Pages about University of Pittsburgh Medical Center Mercy Heliport

Update a link
 
Copyright © AirNav, LLC. All rights reserved. Privacy Policy  Contact